sensor_id;sensor_type;location;lat;lon;timestamp;P1;durP1;ratioP1;P2;durP2;ratioP2
62863;SDS011;48954;59.950;11.014;2023-08-07T00:01:48;4.20;;;2.20;;
62863;SDS011;48954;59.950;11.014;2023-08-07T00:04:14;3.40;;;2.40;;
62863;SDS011;48954;59.950;11.014;2023-08-07T00:06:41;5.40;;;2.20;;
62863;SDS011;48954;59.950;11.014;2023-08-07T00:09:06;4.60;;;2.60;;
62863;SDS011;48954;59.950;11.014;2023-08-07T00:11:32;3.60;;;2.40;;
62863;SDS011;48954;59.950;11.014;2023-08-07T00:13:58;3.60;;;2.10;;
62863;SDS011;48954;59.950;11.014;2023-08-07T00:16:24;3.40;;;2.20;;
62863;SDS011;48954;59.950;11.014;2023-08-07T00:18:50;3.90;;;2.40;;
62863;SDS011;48954;59.950;11.014;2023-08-07T00:21:16;3.20;;;2.20;;
62863;SDS011;48954;59.950;11.014;2023-08-07T00:23:42;3.90;;;2.10;;
62863;SDS011;48954;59.950;11.014;2023-08-07T00:26:08;3.60;;;2.30;;
62863;SDS011;48954;59.950;11.014;2023-08-07T00:28:34;3.50;;;2.20;;
62863;SDS011;48954;59.950;11.014;2023-08-07T00:31:00;3.00;;;1.90;;
62863;SDS011;48954;59.950;11.014;2023-08-07T00:33:26;3.10;;;2.00;;
62863;SDS011;48954;59.950;11.014;2023-08-07T00:35:51;3.80;;;2.40;;
62863;SDS011;48954;59.950;11.014;2023-08-07T00:38:19;5.70;;;2.80;;
62863;SDS011;48954;59.950;11.014;2023-08-07T00:40:45;3.70;;;2.20;;
62863;SDS011;48954;59.950;11.014;2023-08-07T00:43:10;4.30;;;2.40;;
62863;SDS011;48954;59.950;11.014;2023-08-07T00:45:38;3.30;;;2.30;;
62863;SDS011;48954;59.950;11.014;2023-08-07T00:48:07;4.30;;;2.20;;
62863;SDS011;48954;59.950;11.014;2023-08-07T00:50:33;6.60;;;2.40;;
62863;SDS011;48954;59.950;11.014;2023-08-07T00:52:59;4.80;;;2.30;;
62863;SDS011;48954;59.950;11.014;2023-08-07T00:55:26;4.10;;;2.40;;
62863;SDS011;48954;59.950;11.014;2023-08-07T00:57:52;4.50;;;2.40;;
62863;SDS011;48954;59.950;11.014;2023-08-07T01:00:18;3.30;;;2.30;;
62863;SDS011;48954;59.950;11.014;2023-08-07T01:02:45;6.00;;;2.50;;
62863;SDS011;48954;59.950;11.014;2023-08-07T01:05:12;4.40;;;2.20;;
62863;SDS011;48954;59.950;11.014;2023-08-07T01:07:38;5.10;;;2.60;;
62863;SDS011;48954;59.950;11.014;2023-08-07T01:10:04;4.10;;;2.10;;
62863;SDS011;48954;59.950;11.014;2023-08-07T01:12:30;3.50;;;2.40;;
62863;SDS011;48954;59.950;11.014;2023-08-07T01:15:12;3.20;;;2.00;;
62863;SDS011;48954;59.950;11.014;2023-08-07T01:17:41;4.50;;;2.20;;
62863;SDS011;48954;59.950;11.014;2023-08-07T01:20:09;3.50;;;2.10;;
62863;SDS011;48954;59.950;11.014;2023-08-07T01:22:36;5.10;;;2.70;;
62863;SDS011;48954;59.950;11.014;2023-08-07T01:25:02;5.10;;;2.50;;
62863;SDS011;48954;59.950;11.014;2023-08-07T01:27:35;4.00;;;2.10;;
62863;SDS011;48954;59.950;11.014;2023-08-07T01:35:17;4.40;;;2.40;;
62863;SDS011;48954;59.950;11.014;2023-08-07T01:37:46;3.30;;;1.80;;
62863;SDS011;48954;59.950;11.014;2023-08-07T01:40:13;2.80;;;1.80;;
62863;SDS011;48954;59.950;11.014;2023-08-07T01:42:39;4.80;;;2.10;;
62863;SDS011;48954;59.950;11.014;2023-08-07T01:45:06;4.80;;;2.00;;
62863;SDS011;48954;59.950;11.014;2023-08-07T01:47:32;3.60;;;2.10;;
62863;SDS011;48954;59.950;11.014;2023-08-07T01:50:00;3.60;;;2.10;;
62863;SDS011;48954;59.950;11.014;2023-08-07T01:52:25;3.50;;;1.70;;
62863;SDS011;48954;59.950;11.014;2023-08-07T01:54:51;3.90;;;1.90;;
62863;SDS011;48954;59.950;11.014;2023-08-07T01:57:17;2.60;;;1.60;;
62863;SDS011;48954;59.950;11.014;2023-08-07T01:59:43;3.40;;;2.00;;
62863;SDS011;48954;59.950;11.014;2023-08-07T02:02:08;4.40;;;2.10;;
62863;SDS011;48954;59.950;11.014;2023-08-07T02:04:34;4.00;;;2.30;;
62863;SDS011;48954;59.950;11.014;2023-08-07T02:07:00;3.70;;;2.20;;
62863;SDS011;48954;59.950;11.014;2023-08-07T02:09:26;3.20;;;1.90;;
62863;SDS011;48954;59.950;11.014;2023-08-07T02:11:52;3.50;;;2.10;;
62863;SDS011;48954;59.950;11.014;2023-08-07T02:14:18;3.90;;;2.20;;
62863;SDS011;48954;59.950;11.014;2023-08-07T02:16:43;3.30;;;2.00;;
62863;SDS011;48954;59.950;11.014;2023-08-07T02:19:09;4.30;;;2.20;;
62863;SDS011;48954;59.950;11.014;2023-08-07T02:21:35;2.80;;;1.60;;
62863;SDS011;48954;59.950;11.014;2023-08-07T02:24:01;3.80;;;2.20;;
62863;SDS011;48954;59.950;11.014;2023-08-07T02:26:29;2.90;;;1.90;;
62863;SDS011;48954;59.950;11.014;2023-08-07T02:28:55;8.00;;;2.70;;
62863;SDS011;48954;59.950;11.014;2023-08-07T02:31:21;3.40;;;1.90;;
62863;SDS011;48954;59.950;11.014;2023-08-07T02:33:46;3.60;;;1.70;;
62863;SDS011;48954;59.950;11.014;2023-08-07T02:36:12;3.80;;;2.00;;
62863;SDS011;48954;59.950;11.014;2023-08-07T02:38:38;3.00;;;1.90;;
62863;SDS011;48954;59.950;11.014;2023-08-07T02:41:04;3.10;;;1.50;;
62863;SDS011;48954;59.950;11.014;2023-08-07T02:43:29;3.60;;;1.90;;
62863;SDS011;48954;59.950;11.014;2023-08-07T02:45:55;3.70;;;1.70;;
62863;SDS011;48954;59.950;11.014;2023-08-07T02:48:21;3.50;;;1.80;;
62863;SDS011;48954;59.950;11.014;2023-08-07T02:50:47;2.80;;;1.70;;
62863;SDS011;48954;59.950;11.014;2023-08-07T02:53:13;3.30;;;2.00;;
62863;SDS011;48954;59.950;11.014;2023-08-07T02:55:38;3.10;;;1.70;;
62863;SDS011;48954;59.950;11.014;2023-08-07T02:58:04;3.00;;;1.60;;
62863;SDS011;48954;59.950;11.014;2023-08-07T03:00:30;2.80;;;1.50;;
62863;SDS011;48954;59.950;11.014;2023-08-07T03:02:56;3.10;;;1.70;;
62863;SDS011;48954;59.950;11.014;2023-08-07T03:05:22;3.40;;;1.90;;
62863;SDS011;48954;59.950;11.014;2023-08-07T03:07:47;2.70;;;1.50;;
62863;SDS011;48954;59.950;11.014;2023-08-07T03:10:13;2.70;;;1.30;;
62863;SDS011;48954;59.950;11.014;2023-08-07T03:12:39;3.50;;;1.90;;
62863;SDS011;48954;59.950;11.014;2023-08-07T03:15:05;2.90;;;1.40;;
62863;SDS011;48954;59.950;11.014;2023-08-07T03:17:31;2.10;;;1.30;;
62863;SDS011;48954;59.950;11.014;2023-08-07T03:19:57;2.80;;;1.50;;
62863;SDS011;48954;59.950;11.014;2023-08-07T03:22:23;2.80;;;1.40;;
62863;SDS011;48954;59.950;11.014;2023-08-07T03:24:49;2.70;;;1.20;;
62863;SDS011;48954;59.950;11.014;2023-08-07T03:27:15;2.60;;;1.50;;
62863;SDS011;48954;59.950;11.014;2023-08-07T03:29:41;3.70;;;1.40;;
62863;SDS011;48954;59.950;11.014;2023-08-07T03:32:07;2.60;;;1.30;;
62863;SDS011;48954;59.950;11.014;2023-08-07T03:34:33;2.10;;;1.10;;
62863;SDS011;48954;59.950;11.014;2023-08-07T03:36:59;2.30;;;1.10;;
62863;SDS011;48954;59.950;11.014;2023-08-07T03:39:26;2.80;;;1.40;;
62863;SDS011;48954;59.950;11.014;2023-08-07T03:41:51;2.30;;;1.20;;
62863;SDS011;48954;59.950;11.014;2023-08-07T03:44:17;2.70;;;1.30;;
62863;SDS011;48954;59.950;11.014;2023-08-07T03:46:43;2.20;;;1.20;;
62863;SDS011;48954;59.950;11.014;2023-08-07T03:49:09;2.70;;;1.30;;
62863;SDS011;48954;59.950;11.014;2023-08-07T03:51:34;2.70;;;1.10;;
62863;SDS011;48954;59.950;11.014;2023-08-07T03:54:00;2.10;;;1.10;;
62863;SDS011;48954;59.950;11.014;2023-08-07T03:56:26;2.40;;;1.00;;
62863;SDS011;48954;59.950;11.014;2023-08-07T03:58:52;2.70;;;1.10;;
62863;SDS011;48954;59.950;11.014;2023-08-07T04:01:19;1.60;;;0.90;;
62863;SDS011;48954;59.950;11.014;2023-08-07T04:03:46;1.50;;;0.90;;
62863;SDS011;48954;59.950;11.014;2023-08-07T04:06:12;3.90;;;1.20;;
62863;SDS011;48954;59.950;11.014;2023-08-07T04:08:38;1.60;;;0.90;;
62863;SDS011;48954;59.950;11.014;2023-08-07T04:11:04;1.90;;;1.00;;
62863;SDS011;48954;59.950;11.014;2023-08-07T04:13:30;2.60;;;1.20;;
62863;SDS011;48954;59.950;11.014;2023-08-07T04:15:57;3.40;;;0.90;;
62863;SDS011;48954;59.950;11.014;2023-08-07T04:18:23;2.30;;;1.10;;
62863;SDS011;48954;59.950;11.014;2023-08-07T04:20:53;1.80;;;0.90;;
62863;SDS011;48954;59.950;11.014;2023-08-07T04:23:20;1.60;;;0.90;;
62863;SDS011;48954;59.950;11.014;2023-08-07T04:25:47;2.00;;;1.00;;
62863;SDS011;48954;59.950;11.014;2023-08-07T04:28:13;2.60;;;1.00;;
62863;SDS011;48954;59.950;11.014;2023-08-07T04:30:43;2.30;;;0.80;;
62863;SDS011;48954;59.950;11.014;2023-08-07T04:33:09;2.90;;;1.20;;
62863;SDS011;48954;59.950;11.014;2023-08-07T04:35:35;1.90;;;1.00;;
62863;SDS011;48954;59.950;11.014;2023-08-07T04:38:01;1.90;;;0.80;;
62863;SDS011;48954;59.950;11.014;2023-08-07T04:40:28;1.70;;;0.90;;
62863;SDS011;48954;59.950;11.014;2023-08-07T04:42:54;2.40;;;0.90;;
62863;SDS011;48954;59.950;11.014;2023-08-07T04:45:20;2.10;;;1.00;;
62863;SDS011;48954;59.950;11.014;2023-08-07T04:47:46;1.90;;;0.80;;
62863;SDS011;48954;59.950;11.014;2023-08-07T04:50:12;2.20;;;0.90;;
62863;SDS011;48954;59.950;11.014;2023-08-07T04:52:38;2.50;;;0.70;;
62863;SDS011;48954;59.950;11.014;2023-08-07T04:55:04;3.00;;;0.90;;
62863;SDS011;48954;59.950;11.014;2023-08-07T04:57:30;2.70;;;1.00;;
62863;SDS011;48954;59.950;11.014;2023-08-07T04:59:56;2.30;;;0.80;;
62863;SDS011;48954;59.950;11.014;2023-08-07T05:02:22;2.60;;;0.90;;
62863;SDS011;48954;59.950;11.014;2023-08-07T05:04:48;3.20;;;1.00;;
62863;SDS011;48954;59.950;11.014;2023-08-07T05:07:13;2.00;;;1.00;;
62863;SDS011;48954;59.950;11.014;2023-08-07T05:09:39;2.80;;;1.10;;
62863;SDS011;48954;59.950;11.014;2023-08-07T05:12:05;2.40;;;0.70;;
62863;SDS011;48954;59.950;11.014;2023-08-07T05:14:32;3.30;;;0.70;;
62863;SDS011;48954;59.950;11.014;2023-08-07T05:16:59;1.60;;;0.80;;
62863;SDS011;48954;59.950;11.014;2023-08-07T05:19:25;1.90;;;0.90;;
62863;SDS011;48954;59.950;11.014;2023-08-07T05:21:51;2.20;;;0.90;;
62863;SDS011;48954;59.950;11.014;2023-08-07T05:24:17;1.50;;;0.70;;
62863;SDS011;48954;59.950;11.014;2023-08-07T05:26:43;2.70;;;0.80;;
62863;SDS011;48954;59.950;11.014;2023-08-07T05:29:09;1.80;;;0.80;;
62863;SDS011;48954;59.950;11.014;2023-08-07T05:31:35;1.50;;;0.80;;
62863;SDS011;48954;59.950;11.014;2023-08-07T05:34:01;1.50;;;0.70;;
62863;SDS011;48954;59.950;11.014;2023-08-07T05:36:27;2.00;;;0.80;;
62863;SDS011;48954;59.950;11.014;2023-08-07T05:38:53;3.20;;;0.90;;
62863;SDS011;48954;59.950;11.014;2023-08-07T05:41:19;5.20;;;0.90;;
62863;SDS011;48954;59.950;11.014;2023-08-07T05:43:45;2.10;;;1.10;;
62863;SDS011;48954;59.950;11.014;2023-08-07T05:46:11;2.20;;;0.80;;
62863;SDS011;48954;59.950;11.014;2023-08-07T05:48:37;2.20;;;1.00;;
62863;SDS011;48954;59.950;11.014;2023-08-07T05:51:04;2.10;;;1.10;;
62863;SDS011;48954;59.950;11.014;2023-08-07T05:53:29;2.10;;;1.00;;
62863;SDS011;48954;59.950;11.014;2023-08-07T05:55:55;2.00;;;0.80;;
62863;SDS011;48954;59.950;11.014;2023-08-07T05:58:23;1.80;;;1.10;;
62863;SDS011;48954;59.950;11.014;2023-08-07T06:00:48;2.80;;;0.80;;
62863;SDS011;48954;59.950;11.014;2023-08-07T06:03:14;2.50;;;1.00;;
62863;SDS011;48954;59.950;11.014;2023-08-07T06:05:40;1.90;;;0.90;;
62863;SDS011;48954;59.950;11.014;2023-08-07T06:08:06;1.60;;;0.80;;
62863;SDS011;48954;59.950;11.014;2023-08-07T06:10:33;1.80;;;1.00;;
62863;SDS011;48954;59.950;11.014;2023-08-07T06:12:59;1.80;;;0.90;;
62863;SDS011;48954;59.950;11.014;2023-08-07T06:15:25;4.00;;;1.30;;
62863;SDS011;48954;59.950;11.014;2023-08-07T06:17:51;1.80;;;1.00;;
62863;SDS011;48954;59.950;11.014;2023-08-07T06:20:17;1.90;;;0.90;;
62863;SDS011;48954;59.950;11.014;2023-08-07T06:22:44;1.30;;;0.80;;
62863;SDS011;48954;59.950;11.014;2023-08-07T06:25:10;2.90;;;1.00;;
62863;SDS011;48954;59.950;11.014;2023-08-07T06:27:35;3.30;;;1.00;;
62863;SDS011;48954;59.950;11.014;2023-08-07T06:30:01;2.10;;;1.10;;
62863;SDS011;48954;59.950;11.014;2023-08-07T06:32:28;2.50;;;1.10;;
62863;SDS011;48954;59.950;11.014;2023-08-07T06:34:53;2.60;;;1.00;;
62863;SDS011;48954;59.950;11.014;2023-08-07T06:37:19;2.70;;;1.30;;
62863;SDS011;48954;59.950;11.014;2023-08-07T06:39:45;2.00;;;1.00;;
62863;SDS011;48954;59.950;11.014;2023-08-07T06:42:11;2.00;;;0.90;;
62863;SDS011;48954;59.950;11.014;2023-08-07T06:44:37;3.50;;;1.20;;
62863;SDS011;48954;59.950;11.014;2023-08-07T06:47:03;1.90;;;0.80;;
62863;SDS011;48954;59.950;11.014;2023-08-07T06:49:29;3.80;;;1.10;;
62863;SDS011;48954;59.950;11.014;2023-08-07T06:51:55;2.30;;;1.20;;
62863;SDS011;48954;59.950;11.014;2023-08-07T06:54:21;2.20;;;1.00;;
62863;SDS011;48954;59.950;11.014;2023-08-07T06:56:47;2.30;;;1.10;;
62863;SDS011;48954;59.950;11.014;2023-08-07T06:59:14;2.60;;;1.20;;
62863;SDS011;48954;59.950;11.014;2023-08-07T07:01:40;2.20;;;1.10;;
62863;SDS011;48954;59.950;11.014;2023-08-07T07:04:06;5.00;;;1.30;;
62863;SDS011;48954;59.950;11.014;2023-08-07T07:06:33;3.00;;;1.20;;
62863;SDS011;48954;59.950;11.014;2023-08-07T07:08:59;2.90;;;1.20;;
62863;SDS011;48954;59.950;11.014;2023-08-07T07:11:25;3.00;;;1.20;;
62863;SDS011;48954;59.950;11.014;2023-08-07T07:13:51;2.00;;;1.10;;
62863;SDS011;48954;59.950;11.014;2023-08-07T07:16:18;1.90;;;0.90;;
62863;SDS011;48954;59.950;11.014;2023-08-07T07:18:44;3.00;;;1.20;;
62863;SDS011;48954;59.950;11.014;2023-08-07T07:21:10;2.80;;;1.10;;
62863;SDS011;48954;59.950;11.014;2023-08-07T07:23:36;2.20;;;1.10;;
62863;SDS011;48954;59.950;11.014;2023-08-07T07:26:02;4.90;;;1.40;;
62863;SDS011;48954;59.950;11.014;2023-08-07T07:28:28;3.00;;;1.20;;
62863;SDS011;48954;59.950;11.014;2023-08-07T07:30:54;2.20;;;1.10;;
62863;SDS011;48954;59.950;11.014;2023-08-07T07:33:20;3.80;;;1.50;;
62863;SDS011;48954;59.950;11.014;2023-08-07T07:35:46;2.80;;;1.30;;
62863;SDS011;48954;59.950;11.014;2023-08-07T07:38:12;1.90;;;1.00;;
62863;SDS011;48954;59.950;11.014;2023-08-07T07:40:38;2.00;;;1.10;;
62863;SDS011;48954;59.950;11.014;2023-08-07T07:43:04;2.60;;;1.10;;
62863;SDS011;48954;59.950;11.014;2023-08-07T07:45:30;2.20;;;1.20;;
62863;SDS011;48954;59.950;11.014;2023-08-07T07:47:56;2.00;;;1.00;;
62863;SDS011;48954;59.950;11.014;2023-08-07T07:50:23;2.00;;;1.00;;
62863;SDS011;48954;59.950;11.014;2023-08-07T07:52:49;2.40;;;1.00;;
62863;SDS011;48954;59.950;11.014;2023-08-07T07:55:15;1.80;;;1.20;;
62863;SDS011;48954;59.950;11.014;2023-08-07T07:57:42;2.90;;;1.20;;
62863;SDS011;48954;59.950;11.014;2023-08-07T08:00:08;3.20;;;1.30;;
62863;SDS011;48954;59.950;11.014;2023-08-07T08:02:34;2.70;;;1.20;;
62863;SDS011;48954;59.950;11.014;2023-08-07T08:05:00;1.90;;;1.00;;
62863;SDS011;48954;59.950;11.014;2023-08-07T08:07:26;2.40;;;1.00;;
62863;SDS011;48954;59.950;11.014;2023-08-07T08:09:52;2.50;;;1.00;;
62863;SDS011;48954;59.950;11.014;2023-08-07T08:12:21;2.80;;;1.10;;
62863;SDS011;48954;59.950;11.014;2023-08-07T08:14:47;3.00;;;1.00;;
62863;SDS011;48954;59.950;11.014;2023-08-07T08:17:13;1.50;;;0.70;;
62863;SDS011;48954;59.950;11.014;2023-08-07T08:19:41;4.00;;;0.90;;
62863;SDS011;48954;59.950;11.014;2023-08-07T08:22:07;3.10;;;0.90;;
62863;SDS011;48954;59.950;11.014;2023-08-07T08:24:34;2.30;;;1.10;;
62863;SDS011;48954;59.950;11.014;2023-08-07T08:27:00;2.30;;;1.10;;
62863;SDS011;48954;59.950;11.014;2023-08-07T08:29:26;2.60;;;1.10;;
62863;SDS011;48954;59.950;11.014;2023-08-07T08:31:53;2.30;;;1.30;;
62863;SDS011;48954;59.950;11.014;2023-08-07T08:34:25;3.30;;;1.70;;
62863;SDS011;48954;59.950;11.014;2023-08-07T08:36:52;4.50;;;1.30;;
62863;SDS011;48954;59.950;11.014;2023-08-07T08:39:18;6.30;;;2.30;;
62863;SDS011;48954;59.950;11.014;2023-08-07T08:41:47;5.30;;;2.00;;
62863;SDS011;48954;59.950;11.014;2023-08-07T08:44:13;4.00;;;2.20;;
62863;SDS011;48954;59.950;11.014;2023-08-07T08:46:41;3.20;;;1.60;;
62863;SDS011;48954;59.950;11.014;2023-08-07T08:49:10;5.90;;;1.10;;
62863;SDS011;48954;59.950;11.014;2023-08-07T08:51:51;3.30;;;1.20;;
62863;SDS011;48954;59.950;11.014;2023-08-07T08:54:17;2.20;;;0.90;;
62863;SDS011;48954;59.950;11.014;2023-08-07T08:56:43;3.10;;;1.10;;
62863;SDS011;48954;59.950;11.014;2023-08-07T08:59:09;2.70;;;1.60;;
62863;SDS011;48954;59.950;11.014;2023-08-07T09:01:35;4.00;;;1.30;;
62863;SDS011;48954;59.950;11.014;2023-08-07T09:04:03;1.70;;;1.00;;
62863;SDS011;48954;59.950;11.014;2023-08-07T09:06:30;3.20;;;1.40;;
62863;SDS011;48954;59.950;11.014;2023-08-07T09:08:59;5.10;;;1.80;;
62863;SDS011;48954;59.950;11.014;2023-08-07T09:11:30;5.60;;;1.60;;
62863;SDS011;48954;59.950;11.014;2023-08-07T09:13:58;8.80;;;2.90;;
62863;SDS011;48954;59.950;11.014;2023-08-07T09:16:28;5.80;;;1.70;;
62863;SDS011;48954;59.950;11.014;2023-08-07T09:18:55;3.90;;;1.30;;
62863;SDS011;48954;59.950;11.014;2023-08-07T09:21:21;2.80;;;1.30;;
62863;SDS011;48954;59.950;11.014;2023-08-07T09:23:47;4.80;;;1.70;;
62863;SDS011;48954;59.950;11.014;2023-08-07T09:26:12;2.50;;;1.20;;
62863;SDS011;48954;59.950;11.014;2023-08-07T09:28:38;2.00;;;1.10;;
62863;SDS011;48954;59.950;11.014;2023-08-07T09:31:06;4.10;;;1.50;;
62863;SDS011;48954;59.950;11.014;2023-08-07T09:33:32;2.10;;;0.90;;
62863;SDS011;48954;59.950;11.014;2023-08-07T09:35:58;4.70;;;1.50;;
62863;SDS011;48954;59.950;11.014;2023-08-07T09:38:29;2.30;;;1.20;;
62863;SDS011;48954;59.950;11.014;2023-08-07T09:40:59;3.50;;;1.20;;
62863;SDS011;48954;59.950;11.014;2023-08-07T09:43:25;2.10;;;1.00;;
62863;SDS011;48954;59.950;11.014;2023-08-07T09:45:51;2.30;;;0.90;;
62863;SDS011;48954;59.950;11.014;2023-08-07T09:48:23;3.10;;;1.30;;
62863;SDS011;48954;59.950;11.014;2023-08-07T09:50:49;2.00;;;0.80;;
62863;SDS011;48954;59.950;11.014;2023-08-07T09:53:15;3.80;;;1.00;;
62863;SDS011;48954;59.950;11.014;2023-08-07T09:55:41;3.40;;;1.10;;
62863;SDS011;48954;59.950;11.014;2023-08-07T09:58:08;2.70;;;1.10;;
62863;SDS011;48954;59.950;11.014;2023-08-07T10:00:37;2.10;;;1.10;;
62863;SDS011;48954;59.950;11.014;2023-08-07T10:03:03;2.10;;;1.00;;
62863;SDS011;48954;59.950;11.014;2023-08-07T10:05:30;5.00;;;0.90;;
62863;SDS011;48954;59.950;11.014;2023-08-07T10:07:56;3.20;;;1.10;;
62863;SDS011;48954;59.950;11.014;2023-08-07T10:10:23;3.90;;;0.90;;
62863;SDS011;48954;59.950;11.014;2023-08-07T10:12:49;2.60;;;0.60;;
62863;SDS011;48954;59.950;11.014;2023-08-07T10:15:15;3.20;;;0.80;;
62863;SDS011;48954;59.950;11.014;2023-08-07T10:17:42;3.20;;;1.10;;
62863;SDS011;48954;59.950;11.014;2023-08-07T10:20:08;3.30;;;1.00;;
62863;SDS011;48954;59.950;11.014;2023-08-07T10:22:34;1.50;;;0.60;;
62863;SDS011;48954;59.950;11.014;2023-08-07T10:25:04;4.40;;;0.90;;
62863;SDS011;48954;59.950;11.014;2023-08-07T10:27:33;1.90;;;0.60;;
62863;SDS011;48954;59.950;11.014;2023-08-07T10:30:04;3.20;;;0.90;;
62863;SDS011;48954;59.950;11.014;2023-08-07T10:32:35;3.20;;;0.80;;
62863;SDS011;48954;59.950;11.014;2023-08-07T10:35:05;1.70;;;0.50;;
62863;SDS011;48954;59.950;11.014;2023-08-07T10:37:32;1.80;;;0.60;;
62863;SDS011;48954;59.950;11.014;2023-08-07T10:40:04;5.80;;;0.80;;
62863;SDS011;48954;59.950;11.014;2023-08-07T10:45:22;1.20;;;0.60;;
62863;SDS011;48954;59.950;11.014;2023-08-07T10:50:27;1.10;;;0.50;;
62863;SDS011;48954;59.950;11.014;2023-08-07T10:53:00;1.80;;;0.60;;
62863;SDS011;48954;59.950;11.014;2023-08-07T10:55:42;1.30;;;0.40;;
62863;SDS011;48954;59.950;11.014;2023-08-07T10:58:20;1.30;;;0.60;;
62863;SDS011;48954;59.950;11.014;2023-08-07T11:00:47;1.70;;;0.70;;
62863;SDS011;48954;59.950;11.014;2023-08-07T11:03:19;1.90;;;0.60;;
62863;SDS011;48954;59.950;11.014;2023-08-07T11:05:51;1.70;;;0.80;;
62863;SDS011;48954;59.950;11.014;2023-08-07T11:08:21;1.90;;;0.60;;
62863;SDS011;48954;59.950;11.014;2023-08-07T11:10:48;2.40;;;0.70;;
62863;SDS011;48954;59.950;11.014;2023-08-07T11:13:16;0.90;;;0.40;;
62863;SDS011;48954;59.950;11.014;2023-08-07T11:15:42;1.20;;;0.80;;
62863;SDS011;48954;59.950;11.014;2023-08-07T11:18:07;1.30;;;0.50;;
62863;SDS011;48954;59.950;11.014;2023-08-07T11:20:34;1.30;;;0.50;;
62863;SDS011;48954;59.950;11.014;2023-08-07T11:23:00;1.40;;;0.50;;
62863;SDS011;48954;59.950;11.014;2023-08-07T11:25:26;1.60;;;0.60;;
62863;SDS011;48954;59.950;11.014;2023-08-07T11:27:53;0.90;;;0.50;;
62863;SDS011;48954;59.950;11.014;2023-08-07T11:30:20;2.10;;;0.70;;
62863;SDS011;48954;59.950;11.014;2023-08-07T11:32:46;3.10;;;0.50;;
62863;SDS011;48954;59.950;11.014;2023-08-07T11:35:12;2.10;;;0.70;;
62863;SDS011;48954;59.950;11.014;2023-08-07T11:37:45;2.70;;;0.80;;
62863;SDS011;48954;59.950;11.014;2023-08-07T11:40:11;1.30;;;0.70;;
62863;SDS011;48954;59.950;11.014;2023-08-07T11:42:40;1.70;;;0.70;;
62863;SDS011;48954;59.950;11.014;2023-08-07T11:45:06;1.60;;;0.60;;
62863;SDS011;48954;59.950;11.014;2023-08-07T11:47:34;2.00;;;1.20;;
62863;SDS011;48954;59.950;11.014;2023-08-07T11:50:01;1.60;;;0.80;;
62863;SDS011;48954;59.950;11.014;2023-08-07T11:52:27;1.50;;;0.70;;
62863;SDS011;48954;59.950;11.014;2023-08-07T11:54:54;3.20;;;0.80;;
62863;SDS011;48954;59.950;11.014;2023-08-07T11:57:20;2.50;;;0.80;;
62863;SDS011;48954;59.950;11.014;2023-08-07T11:59:49;2.20;;;0.60;;
62863;SDS011;48954;59.950;11.014;2023-08-07T12:02:15;3.80;;;1.00;;
62863;SDS011;48954;59.950;11.014;2023-08-07T12:04:43;2.00;;;0.70;;
62863;SDS011;48954;59.950;11.014;2023-08-07T12:07:10;1.80;;;0.70;;
62863;SDS011;48954;59.950;11.014;2023-08-07T12:09:36;2.00;;;0.80;;
62863;SDS011;48954;59.950;11.014;2023-08-07T12:12:02;1.80;;;0.80;;
62863;SDS011;48954;59.950;11.014;2023-08-07T12:14:29;1.80;;;0.70;;
62863;SDS011;48954;59.950;11.014;2023-08-07T12:16:55;1.40;;;0.60;;
62863;SDS011;48954;59.950;11.014;2023-08-07T12:19:21;2.00;;;0.60;;
62863;SDS011;48954;59.950;11.014;2023-08-07T12:21:47;1.20;;;0.40;;
62863;SDS011;48954;59.950;11.014;2023-08-07T12:24:13;1.20;;;0.60;;
62863;SDS011;48954;59.950;11.014;2023-08-07T12:26:39;1.60;;;0.70;;
62863;SDS011;48954;59.950;11.014;2023-08-07T12:29:05;1.80;;;0.70;;
62863;SDS011;48954;59.950;11.014;2023-08-07T12:31:32;1.20;;;0.60;;
62863;SDS011;48954;59.950;11.014;2023-08-07T12:33:58;1.10;;;0.60;;
62863;SDS011;48954;59.950;11.014;2023-08-07T12:36:25;1.10;;;0.50;;
62863;SDS011;48954;59.950;11.014;2023-08-07T12:38:51;1.30;;;0.60;;
62863;SDS011;48954;59.950;11.014;2023-08-07T12:41:16;1.50;;;0.60;;
62863;SDS011;48954;59.950;11.014;2023-08-07T12:43:42;1.50;;;0.50;;
62863;SDS011;48954;59.950;11.014;2023-08-07T12:46:09;1.20;;;0.60;;
62863;SDS011;48954;59.950;11.014;2023-08-07T12:48:36;1.30;;;0.60;;
62863;SDS011;48954;59.950;11.014;2023-08-07T12:51:02;3.30;;;0.80;;
62863;SDS011;48954;59.950;11.014;2023-08-07T12:53:28;2.20;;;0.70;;
62863;SDS011;48954;59.950;11.014;2023-08-07T12:55:54;2.60;;;0.60;;
62863;SDS011;48954;59.950;11.014;2023-08-07T12:58:20;1.10;;;0.60;;
62863;SDS011;48954;59.950;11.014;2023-08-07T13:00:46;6.10;;;1.00;;
62863;SDS011;48954;59.950;11.014;2023-08-07T13:03:13;1.30;;;0.70;;
62863;SDS011;48954;59.950;11.014;2023-08-07T13:05:39;1.60;;;0.70;;
62863;SDS011;48954;59.950;11.014;2023-08-07T13:08:06;0.90;;;0.50;;
62863;SDS011;48954;59.950;11.014;2023-08-07T13:10:32;0.90;;;0.40;;
62863;SDS011;48954;59.950;11.014;2023-08-07T13:13:00;1.10;;;0.60;;
62863;SDS011;48954;59.950;11.014;2023-08-07T13:15:26;1.00;;;0.50;;
62863;SDS011;48954;59.950;11.014;2023-08-07T13:17:52;1.20;;;0.40;;
62863;SDS011;48954;59.950;11.014;2023-08-07T13:20:19;1.40;;;0.60;;
62863;SDS011;48954;59.950;11.014;2023-08-07T13:22:50;2.30;;;0.90;;
62863;SDS011;48954;59.950;11.014;2023-08-07T13:25:32;3.00;;;0.60;;
62863;SDS011;48954;59.950;11.014;2023-08-07T13:27:58;3.50;;;0.50;;
62863;SDS011;48954;59.950;11.014;2023-08-07T13:30:24;1.40;;;0.60;;
62863;SDS011;48954;59.950;11.014;2023-08-07T13:32:50;2.10;;;0.70;;
62863;SDS011;48954;59.950;11.014;2023-08-07T13:35:16;1.50;;;0.50;;
62863;SDS011;48954;59.950;11.014;2023-08-07T13:37:42;1.30;;;0.60;;
62863;SDS011;48954;59.950;11.014;2023-08-07T13:40:08;1.20;;;0.50;;
62863;SDS011;48954;59.950;11.014;2023-08-07T13:42:34;1.20;;;0.50;;
62863;SDS011;48954;59.950;11.014;2023-08-07T13:45:00;1.40;;;0.70;;
62863;SDS011;48954;59.950;11.014;2023-08-07T13:47:26;1.50;;;0.60;;
62863;SDS011;48954;59.950;11.014;2023-08-07T13:49:52;1.40;;;0.60;;
62863;SDS011;48954;59.950;11.014;2023-08-07T13:52:19;0.90;;;0.50;;
62863;SDS011;48954;59.950;11.014;2023-08-07T13:54:45;1.70;;;0.60;;
62863;SDS011;48954;59.950;11.014;2023-08-07T13:57:11;0.80;;;0.50;;
62863;SDS011;48954;59.950;11.014;2023-08-07T13:59:37;1.30;;;0.80;;
62863;SDS011;48954;59.950;11.014;2023-08-07T14:02:03;1.50;;;0.50;;
62863;SDS011;48954;59.950;11.014;2023-08-07T14:04:30;1.30;;;0.70;;
62863;SDS011;48954;59.950;11.014;2023-08-07T14:06:57;1.50;;;1.00;;
62863;SDS011;48954;59.950;11.014;2023-08-07T14:09:32;3.00;;;0.80;;
62863;SDS011;48954;59.950;11.014;2023-08-07T14:11:58;1.90;;;0.70;;
62863;SDS011;48954;59.950;11.014;2023-08-07T14:14:24;8.10;;;1.10;;
62863;SDS011;48954;59.950;11.014;2023-08-07T14:16:50;1.60;;;0.70;;
62863;SDS011;48954;59.950;11.014;2023-08-07T14:19:16;1.70;;;0.80;;
62863;SDS011;48954;59.950;11.014;2023-08-07T14:21:42;2.30;;;0.80;;
62863;SDS011;48954;59.950;11.014;2023-08-07T14:24:08;3.40;;;1.20;;
62863;SDS011;48954;59.950;11.014;2023-08-07T14:26:34;4.20;;;0.90;;
62863;SDS011;48954;59.950;11.014;2023-08-07T14:29:00;2.30;;;0.90;;
62863;SDS011;48954;59.950;11.014;2023-08-07T14:31:26;2.10;;;0.90;;
62863;SDS011;48954;59.950;11.014;2023-08-07T14:33:52;2.30;;;0.80;;
62863;SDS011;48954;59.950;11.014;2023-08-07T14:36:17;1.90;;;0.90;;
62863;SDS011;48954;59.950;11.014;2023-08-07T14:38:45;4.50;;;1.10;;
62863;SDS011;48954;59.950;11.014;2023-08-07T14:41:12;2.60;;;1.00;;